Terminal Aerodrome Forecast
Issued by NWS

Home | Current Version | Previous Version | Text Only | Print | Product List | Glossary On
Versions: 1 2 3 4 5 6 7 8 9 10 11 12
000
FTUS46 KMTR 210520
TAFOAK
TAF
KOAK 210520Z 2106/2212 28005KT P6SM FEW018
     FM210900 VRB03KT P6SM SCT015
     FM211500 24005KT P6SM FEW015 FEW150
     FM212000 28014KT P6SM FEW200
     FM220300 28008KT P6SM FEW200
     FM220700 28004KT P6SM SKC=

USA.gov is the U.S. government's official web portal to all federal, state and local government web resources and services.